Estación Meteorológica Peña el Pijo (Robertgarden) [ 05/25/18 12:44:13 CEST ]

Fecha Hora Presion(HPa) Temp (°C) Humedad % Rocio (°C) Viento ( m/s) Direccion Lluvia 1Hora(mm) Lluvia 24H(mm) LLuvia Total(mm)
2018-Mar-23 01:01:39 1006.900 3.9 63 -2.6         176.12
2018-Mar-23 02:02:12 1006.700 3.8 62 -2.9         176.12
2018-Mar-23 03:02:17 1006.500 3.3 62 -3.3         176.12
2018-Mar-23 04:02:05 1006.300 3.5 59 -3.8         176.12
2018-Mar-23 05:03:48 1005.900 3.3 61 -3.5         176.12
2018-Mar-23 06:02:05 1005.900 3.3 63 -3.1         176.12
2018-Mar-23 07:01:47 1005.300 2.9 67 -2.6         176.12
2018-Mar-23 08:01:52 1005.700 2.9 68 -2.4         176.12
2018-Mar-23 09:01:53 1005.100 7.7 54 -1.1         176.12
2018-Mar-23 10:01:35 1005.000 10.2 41 -2.5 2.5 WNW     176.12
2018-Mar-23 11:01:37 1004.700 11.9 35 -3.2 1.6 NW     176.12
2018-Mar-23 12:01:44 1004.500 14.1 32 -2.4         176.12
2018-Mar-23 13:01:28 1004.000 12.8 32 -3.6         176.12
2018-Mar-23 14:01:33 1003.400 11.1 33 -4.7         176.12
2018-Mar-23 15:01:47 1002.700 11.4 39 -2.1         176.12
2018-Mar-23 16:01:28 1002.800 10.3 48 -0.2         176.12
2018-Mar-23 17:01:46 1002.100 11.4 56 2.9         176.12
2018-Mar-23 18:01:39 1001.600 8.4 67 2.6 1.7 WNW     176.12
2018-Mar-23 19:01:32 1001.000 7.6 72 2.9         176.12
2018-Mar-23 20:01:28 1000.300 7.1 75 2.9 2.3 NW     176.12
2018-Mar-23 21:01:37 998.600 6.9 77 3.1         176.12
2018-Mar-23 22:01:27 997.100 7.8 78 4.2         176.12
2018-Mar-23 23:01:36 995.100 8.5 77 4.7 1.8 NW     176.12

Temperatura Máxima:14°    Temperatura Mínima:
Presión Máxima:1006.900 Hpa    Presión Mínima:995.100 Hpa


Volver